createdAt,value
2022-08-22T00:00:29.638Z,4.40
2022-08-22T00:02:42.671Z,4.25
2022-08-22T00:03:00.232Z,4.45
2022-08-22T00:03:00.351Z,4.65
2022-08-22T00:03:09.032Z,4.10
2022-08-22T00:03:17.551Z,4.07
2022-08-22T00:05:43.833Z,5.32
2022-08-22T00:08:10.292Z,4.82
2022-08-22T00:10:37.224Z,4.78
2022-08-22T00:13:03.590Z,5.07
2022-08-22T00:15:43.601Z,4.53
2022-08-22T00:18:10.575Z,4.65
2022-08-22T00:20:36.961Z,4.70
2022-08-22T00:23:03.407Z,4.68
2022-08-22T00:25:29.877Z,4.40
2022-08-22T00:27:56.345Z,4.63
2022-08-22T00:30:23.148Z,4.43
2022-08-22T00:32:49.617Z,4.40
2022-08-22T00:35:16.121Z,4.30
2022-08-22T00:37:42.461Z,4.65
2022-08-22T00:40:09.066Z,4.75
2022-08-22T00:42:35.502Z,4.38
2022-08-22T00:45:01.849Z,5.28
2022-08-22T00:47:28.309Z,4.60
2022-08-22T00:49:54.591Z,5.28
2022-08-22T00:52:20.995Z,4.55
2022-08-22T00:54:47.443Z,4.75
2022-08-22T00:57:13.914Z,4.50
2022-08-22T00:59:40.438Z,4.32
2022-08-22T01:02:06.830Z,4.80
2022-08-22T01:04:33.209Z,4.80
2022-08-22T01:06:59.618Z,4.80
2022-08-22T01:09:26.257Z,4.75
2022-08-22T01:11:52.582Z,4.53
2022-08-22T01:14:18.914Z,4.85
2022-08-22T01:16:47.069Z,4.78
2022-08-22T01:19:14.194Z,4.72
2022-08-22T01:21:41.618Z,4.45
2022-08-22T01:24:08.478Z,4.07
2022-08-22T01:26:35.069Z,4.97
2022-08-22T01:29:03.330Z,4.63
2022-08-22T01:31:32.059Z,4.85
2022-08-22T01:33:58.527Z,4.25
2022-08-22T01:36:25.162Z,4.72
2022-08-22T01:38:51.614Z,4.95
2022-08-22T01:41:19.130Z,4.80
2022-08-22T01:43:59.082Z,4.60
2022-08-22T01:46:26.802Z,4.95
2022-08-22T01:48:53.388Z,4.90
2022-08-22T01:51:19.942Z,4.93
2022-08-22T01:53:46.287Z,4.65
2022-08-22T01:56:12.652Z,4.82
2022-08-22T01:58:39.205Z,4.78
2022-08-22T02:01:05.878Z,4.53
2022-08-22T02:03:32.473Z,4.95
2022-08-22T02:05:58.840Z,4.85
2022-08-22T02:08:25.171Z,4.35
2022-08-22T02:10:51.539Z,4.68
2022-08-22T02:13:17.998Z,5.05
2022-08-22T02:15:44.540Z,4.80
2022-08-22T02:18:10.996Z,4.80
2022-08-22T02:20:37.318Z,4.88
2022-08-22T02:23:03.638Z,4.35
2022-08-22T02:25:30.034Z,5.07
2022-08-22T02:27:56.409Z,4.57
2022-08-22T02:30:22.716Z,4.30
2022-08-22T02:32:49.211Z,4.72
2022-08-22T02:35:15.535Z,4.95
2022-08-22T02:37:42.185Z,4.55
2022-08-22T02:40:08.583Z,4.90
2022-08-22T02:42:35.050Z,4.50
2022-08-22T02:45:01.433Z,4.22
2022-08-22T02:47:27.885Z,4.82
2022-08-22T02:49:54.294Z,4.65
2022-08-22T02:52:22.442Z,4.90
2022-08-22T02:54:48.947Z,4.82
2022-08-22T02:57:15.294Z,4.43
2022-08-22T02:59:41.653Z,4.43
2022-08-22T03:07:24.968Z,4.88
2022-08-22T03:09:51.400Z,4.35
2022-08-22T03:12:17.723Z,4.60
2022-08-22T03:14:44.027Z,4.60
2022-08-22T03:17:10.615Z,4.60
2022-08-22T03:19:37.006Z,4.28
2022-08-22T03:22:03.514Z,4.70
2022-08-22T03:24:29.850Z,4.60
2022-08-22T03:26:56.283Z,4.68
2022-08-22T03:29:22.645Z,4.57
2022-08-22T03:31:49.101Z,4.10
2022-08-22T03:34:15.451Z,4.63
2022-08-22T03:36:41.780Z,4.88
2022-08-22T03:39:16.571Z,4.38
2022-08-22T03:41:43.855Z,4.10
2022-08-22T03:44:10.213Z,4.80
2022-08-22T03:46:36.546Z,4.72
2022-08-22T03:49:02.943Z,4.18
2022-08-22T03:51:29.594Z,4.20
2022-08-22T03:53:55.876Z,4.45
2022-08-22T03:56:22.186Z,4.45
2022-08-22T03:58:48.536Z,4.43
2022-08-22T04:01:15.015Z,4.53
2022-08-22T04:03:41.533Z,4.32
2022-08-22T04:06:11.511Z,4.43
2022-08-22T04:08:43.927Z,4.50
2022-08-22T04:11:11.734Z,4.32
2022-08-22T04:13:38.134Z,4.25
2022-08-22T04:16:04.486Z,4.78
2022-08-22T04:18:33.327Z,4.15
2022-08-22T04:20:59.914Z,4.45
2022-08-22T04:23:26.204Z,4.00
2022-08-22T04:25:52.554Z,4.63
2022-08-22T04:28:19.064Z,4.10
2022-08-22T04:30:45.759Z,4.43
2022-08-22T04:33:12.130Z,4.38
2022-08-22T04:35:38.497Z,4.65
2022-08-22T04:38:04.884Z,4.38
2022-08-22T04:40:34.923Z,4.28
2022-08-22T04:43:01.497Z,4.07
2022-08-22T04:45:30.160Z,4.07
2022-08-22T04:47:56.510Z,4.68
2022-08-22T04:50:24.244Z,4.20
2022-08-22T04:52:50.765Z,4.00
2022-08-22T04:55:17.185Z,3.95
2022-08-22T04:57:43.490Z,3.78
2022-08-22T05:00:09.849Z,4.38
2022-08-22T05:02:36.314Z,4.68
2022-08-22T05:05:02.651Z,4.53
2022-08-22T05:07:29.402Z,4.43
2022-08-22T05:10:09.291Z,4.10
2022-08-22T05:12:38.752Z,4.13
2022-08-22T05:15:05.082Z,4.13
2022-08-22T05:17:33.674Z,4.07
2022-08-22T05:20:00.319Z,4.03
2022-08-22T05:22:26.707Z,4.18
2022-08-22T05:24:53.286Z,5.20
2022-08-22T05:27:19.745Z,6.03
2022-08-22T05:29:46.164Z,5.75
2022-08-22T05:32:12.492Z,5.30
2022-08-22T05:34:38.881Z,5.75
2022-08-22T05:37:05.279Z,5.60
2022-08-22T05:39:34.584Z,6.07
2022-08-22T05:42:00.860Z,5.82
2022-08-22T05:44:27.209Z,6.05
2022-08-22T05:46:53.673Z,5.60
2022-08-22T05:49:20.044Z,5.93
2022-08-22T05:51:46.879Z,5.35
2022-08-22T05:54:13.466Z,5.03
2022-08-22T05:56:39.949Z,5.50
2022-08-22T05:59:08.437Z,5.60
2022-08-22T06:01:35.089Z,5.65
2022-08-22T06:04:01.873Z,5.38
2022-08-22T06:06:28.190Z,5.55
2022-08-22T06:08:54.521Z,5.45
2022-08-22T06:11:20.842Z,5.60
2022-08-22T06:13:48.867Z,4.72
2022-08-22T06:16:18.570Z,5.22
2022-08-22T06:18:44.931Z,5.63
2022-08-22T06:21:11.413Z,5.50
2022-08-22T06:23:37.681Z,5.65
2022-08-22T06:26:04.068Z,5.00
2022-08-22T06:28:30.567Z,5.43
2022-08-22T06:30:57.026Z,5.13
2022-08-22T06:33:23.454Z,5.28
2022-08-22T06:35:49.817Z,5.82
2022-08-22T06:38:16.414Z,8.77
2022-08-22T06:40:43.360Z,9.45
2022-08-22T06:43:10.029Z,10.35
2022-08-22T06:45:36.401Z,9.88
2022-08-22T06:48:02.915Z,9.10
2022-08-22T06:50:29.713Z,10.20
2022-08-22T06:52:56.162Z,10.00
2022-08-22T06:55:22.586Z,10.68
2022-08-22T06:57:49.001Z,10.50
2022-08-22T07:00:15.446Z,10.55
2022-08-22T07:02:41.818Z,11.68
2022-08-22T07:05:08.250Z,10.85
2022-08-22T07:07:34.663Z,10.55
2022-08-22T07:10:01.046Z,10.35
2022-08-22T07:12:27.609Z,10.93
2022-08-22T07:14:54.172Z,11.35
2022-08-22T07:17:22.506Z,10.73
2022-08-22T07:19:48.866Z,11.30
2022-08-22T07:22:15.193Z,11.30
2022-08-22T07:24:41.655Z,10.18
2022-08-22T07:27:08.037Z,13.50
2022-08-22T07:29:34.441Z,12.60
2022-08-22T07:32:02.000Z,11.63
2022-08-22T07:34:28.294Z,11.25
2022-08-22T07:36:54.619Z,10.85
2022-08-22T07:39:21.546Z,11.23
2022-08-22T07:41:48.036Z,10.55
2022-08-22T07:44:14.344Z,11.63
2022-08-22T07:46:40.671Z,11.48
2022-08-22T07:49:09.414Z,11.63
2022-08-22T07:51:36.455Z,11.23
2022-08-22T07:54:02.973Z,10.93
2022-08-22T07:56:29.627Z,10.80
2022-08-22T07:58:56.071Z,9.77
2022-08-22T08:01:22.471Z,10.98
2022-08-22T08:03:50.347Z,10.63
2022-08-22T08:06:16.678Z,10.32
2022-08-22T08:08:43.073Z,9.77
2022-08-22T08:11:09.380Z,10.25
2022-08-22T08:13:39.447Z,10.43
2022-08-22T08:18:38.478Z,10.93
2022-08-22T08:21:09.045Z,10.63
2022-08-22T08:26:28.208Z,10.93
2022-08-22T08:28:58.298Z,9.88
2022-08-22T08:31:26.743Z,9.77
2022-08-22T08:36:40.865Z,10.05
2022-08-22T08:39:09.443Z,9.43
2022-08-22T08:41:36.213Z,10.10
2022-08-22T08:44:02.814Z,9.32
2022-08-22T08:46:29.198Z,9.57
2022-08-22T08:48:55.695Z,9.27
2022-08-22T08:51:23.451Z,10.25
2022-08-22T08:53:50.150Z,8.90
2022-08-22T08:56:19.860Z,9.20
2022-08-22T08:58:46.657Z,8.63
2022-08-22T09:01:15.203Z,10.07
2022-08-22T09:03:42.222Z,9.43
2022-08-22T09:06:10.316Z,10.05
2022-08-22T09:08:39.145Z,9.68
2022-08-22T09:11:09.931Z,9.52
2022-08-22T09:13:40.915Z,8.95
2022-08-22T09:16:07.430Z,8.15
2022-08-22T09:18:36.449Z,8.60
2022-08-22T09:21:02.998Z,8.70
2022-08-22T09:23:29.362Z,8.00
2022-08-22T09:25:55.661Z,8.35
2022-08-22T09:28:22.159Z,7.43
2022-08-22T09:30:54.662Z,7.90
2022-08-22T09:33:21.046Z,8.30
2022-08-22T09:35:49.986Z,8.68
2022-08-22T09:38:17.595Z,8.73
2022-08-22T09:40:46.008Z,8.45
2022-08-22T09:43:12.736Z,8.40
2022-08-22T09:45:39.067Z,7.95
2022-08-22T09:48:07.311Z,8.18
2022-08-22T09:50:35.231Z,8.07
2022-08-22T09:53:01.624Z,8.27
2022-08-22T09:55:34.899Z,7.47
2022-08-22T09:58:03.178Z,7.38
2022-08-22T10:00:30.393Z,7.88
2022-08-22T10:02:58.114Z,8.10
2022-08-22T10:05:40.961Z,7.97
2022-08-22T10:08:11.477Z,7.70
2022-08-22T10:10:38.086Z,6.82
2022-08-22T10:13:05.068Z,8.27
2022-08-22T10:15:37.676Z,7.85
2022-08-22T10:18:04.022Z,7.85
2022-08-22T10:20:30.505Z,7.90
2022-08-22T10:22:57.002Z,6.93
2022-08-22T10:25:23.569Z,8.10
2022-08-22T10:27:50.159Z,6.95
2022-08-22T10:30:16.563Z,6.90
2022-08-22T10:32:43.057Z,7.15
2022-08-22T10:35:09.590Z,7.65
2022-08-22T10:37:36.636Z,6.90
2022-08-22T10:42:49.772Z,6.97
2022-08-22T10:48:04.293Z,7.30
2022-08-22T10:50:35.350Z,7.32
2022-08-22T10:53:02.046Z,7.32
2022-08-22T10:55:28.453Z,6.80
2022-08-22T10:57:54.860Z,6.45
2022-08-22T11:00:22.525Z,6.70
2022-08-22T11:02:53.290Z,6.93
2022-08-22T11:08:04.274Z,17.33
2022-08-22T11:13:14.700Z,34.00
2022-08-22T11:18:25.135Z,35.35
2022-08-22T11:20:51.557Z,31.92
2022-08-22T11:23:18.247Z,26.88
2022-08-22T11:25:46.484Z,36.95
2022-08-22T11:28:20.374Z,41.88
2022-08-22T11:30:47.694Z,50.97
2022-08-22T11:33:16.736Z,54.88
2022-08-22T11:35:44.420Z,51.88
2022-08-22T11:38:11.185Z,47.63
2022-08-22T11:40:37.595Z,52.05
2022-08-22T11:43:04.133Z,31.70
2022-08-22T11:45:30.877Z,32.50
2022-08-22T11:47:57.596Z,26.05
2022-08-22T11:50:26.357Z,34.90
2022-08-22T11:55:43.282Z,35.20
2022-08-22T11:58:09.762Z,60.88
2022-08-22T12:00:36.117Z,40.92
2022-08-22T12:03:04.035Z,39.20
2022-08-22T12:05:31.286Z,48.22
2022-08-22T12:10:49.142Z,16.10
2022-08-22T12:13:16.936Z,16.30
2022-08-22T12:15:44.615Z,15.55
2022-08-22T12:18:12.179Z,15.32
2022-08-22T12:20:40.859Z,16.83
2022-08-22T12:23:11.993Z,12.80
2022-08-22T12:25:38.994Z,11.85
2022-08-22T12:28:10.978Z,7.75
2022-08-22T12:30:40.589Z,8.98
2022-08-22T12:33:06.931Z,8.65
2022-08-22T12:35:36.286Z,13.33
2022-08-22T12:38:03.162Z,30.00
2022-08-22T12:43:33.385Z,72.50
2022-08-22T12:46:06.238Z,45.92
2022-08-22T12:48:39.625Z,15.70
2022-08-22T12:51:18.176Z,17.52
2022-08-22T12:53:45.245Z,22.13
2022-08-22T12:56:11.766Z,17.13
2022-08-22T12:58:39.921Z,12.23
2022-08-22T13:01:06.528Z,9.50
2022-08-22T13:03:33.139Z,8.40
2022-08-22T13:06:00.444Z,14.48
2022-08-22T13:08:27.340Z,25.60
2022-08-22T13:10:55.558Z,36.90
2022-08-22T13:13:31.329Z,35.08
2022-08-22T13:18:47.718Z,31.45
2022-08-22T13:21:20.636Z,24.02
2022-08-22T13:26:33.521Z,11.48
2022-08-22T13:29:24.767Z,8.10
2022-08-22T13:34:43.678Z,9.45
2022-08-22T13:37:10.278Z,9.63
2022-08-22T13:39:37.870Z,12.82
2022-08-22T13:42:04.322Z,24.50
2022-08-22T13:44:40.824Z,32.67
2022-08-22T13:47:14.385Z,20.85
2022-08-22T13:55:16.246Z,14.45
2022-08-22T14:00:33.144Z,17.10
2022-08-22T14:02:59.462Z,16.83
2022-08-22T14:05:26.089Z,15.02
2022-08-22T14:07:53.046Z,13.32
2022-08-22T14:10:19.675Z,11.98
2022-08-22T14:15:32.039Z,10.95
2022-08-22T14:20:43.807Z,9.40
2022-08-22T14:23:10.603Z,8.82
2022-08-22T14:25:37.226Z,6.75
2022-08-22T14:30:49.246Z,6.50
2022-08-22T14:33:21.055Z,6.60
2022-08-22T14:35:52.923Z,6.60
2022-08-22T14:38:19.555Z,16.08
2022-08-22T14:40:46.331Z,42.63
2022-08-22T14:43:12.770Z,43.33
2022-08-22T14:45:39.097Z,30.33
2022-08-22T14:48:29.547Z,32.85
2022-08-22T14:50:53.256Z,43.70
2022-08-22T14:53:22.253Z,25.65
2022-08-22T14:55:51.597Z,51.92
2022-08-22T14:58:27.580Z,46.40
2022-08-22T15:00:54.243Z,61.63
2022-08-22T15:03:20.620Z,42.72
2022-08-22T15:05:47.338Z,29.13
2022-08-22T15:08:13.686Z,20.75
2022-08-22T15:10:42.319Z,17.67
2022-08-22T15:13:08.915Z,14.32
2022-08-22T15:15:41.276Z,11.15
2022-08-22T15:18:18.809Z,8.88
2022-08-22T15:20:49.202Z,7.10
2022-08-22T15:23:18.737Z,7.32
2022-08-22T15:25:46.914Z,6.63
2022-08-22T15:28:14.353Z,6.90
2022-08-22T15:30:46.649Z,11.90
2022-08-22T15:35:58.091Z,13.15
2022-08-22T15:38:27.686Z,12.45
2022-08-22T15:40:54.274Z,9.10
2022-08-22T15:43:20.632Z,6.97
2022-08-22T15:45:46.963Z,7.05
2022-08-22T15:48:14.961Z,6.00
2022-08-22T15:50:41.865Z,5.63
2022-08-22T15:53:08.499Z,5.80
2022-08-22T15:55:35.002Z,4.93
2022-08-22T15:58:02.481Z,4.45
2022-08-22T16:00:29.164Z,4.53
2022-08-22T16:05:39.908Z,4.28
2022-08-22T16:08:06.268Z,10.68
2022-08-22T16:10:32.894Z,10.95
2022-08-22T16:12:59.544Z,14.77
2022-08-22T16:15:26.575Z,11.15
2022-08-22T16:17:53.563Z,8.20
2022-08-22T16:20:20.377Z,6.10
2022-08-22T16:22:47.444Z,5.10
2022-08-22T16:28:04.354Z,4.95
2022-08-22T16:33:22.006Z,4.35
2022-08-22T16:35:48.465Z,4.38
2022-08-22T16:38:15.178Z,4.60
2022-08-22T16:40:41.819Z,4.32
2022-08-22T16:43:08.186Z,4.10
2022-08-22T16:45:34.514Z,4.65
2022-08-22T16:48:01.034Z,4.10
2022-08-22T16:50:27.646Z,4.13
2022-08-22T16:52:54.154Z,4.60
2022-08-22T16:55:20.550Z,8.40
2022-08-22T16:58:05.026Z,17.73
2022-08-22T17:00:32.391Z,17.85
2022-08-22T17:02:59.019Z,19.52
2022-08-22T17:05:25.387Z,13.48
2022-08-22T17:07:56.461Z,13.88
2022-08-22T17:10:22.899Z,11.07
2022-08-22T17:12:49.274Z,8.40
2022-08-22T17:15:15.885Z,7.57
2022-08-22T17:20:26.516Z,5.68
2022-08-22T17:22:52.928Z,5.60
2022-08-22T17:25:19.249Z,5.05
2022-08-22T17:27:45.770Z,4.80
2022-08-22T17:30:12.289Z,4.97
2022-08-22T17:32:38.748Z,4.85
2022-08-22T17:35:05.032Z,3.95
2022-08-22T17:37:31.370Z,4.30
2022-08-22T17:42:48.183Z,3.83
2022-08-22T17:45:14.552Z,4.10
2022-08-22T17:47:41.043Z,4.18
2022-08-22T17:50:07.641Z,4.00
2022-08-22T17:52:34.137Z,4.43
2022-08-22T17:55:00.424Z,33.97
2022-08-22T17:57:26.818Z,34.35
2022-08-22T17:59:53.207Z,29.23
2022-08-22T18:02:19.598Z,29.92
2022-08-22T18:04:47.578Z,28.13
2022-08-22T18:07:13.986Z,35.90
2022-08-22T18:09:40.465Z,17.38
2022-08-22T18:12:07.760Z,25.52
2022-08-22T18:14:34.267Z,23.05
2022-08-22T18:17:00.589Z,21.73
2022-08-22T18:19:27.089Z,22.10
2022-08-22T18:21:53.585Z,17.70
2022-08-22T18:24:19.931Z,17.05
2022-08-22T18:26:46.465Z,15.02
2022-08-22T18:29:12.800Z,15.95
2022-08-22T18:31:39.144Z,14.07
2022-08-22T18:34:05.789Z,12.80
2022-08-22T18:36:32.478Z,12.00
2022-08-22T18:38:59.125Z,12.25
2022-08-22T18:41:26.102Z,11.68
2022-08-22T18:43:52.674Z,10.68
2022-08-22T18:46:19.446Z,10.27
2022-08-22T18:49:12.099Z,9.15
2022-08-22T18:51:33.849Z,9.35
2022-08-22T18:54:02.193Z,47.92
2022-08-22T18:56:28.658Z,49.22
2022-08-22T18:59:02.910Z,66.20
2022-08-22T19:01:39.353Z,52.15
2022-08-22T19:04:11.119Z,50.58
2022-08-22T19:09:21.717Z,31.50
2022-08-22T19:11:48.190Z,37.67
2022-08-22T19:14:14.480Z,36.50
2022-08-22T19:16:40.838Z,29.90
2022-08-22T19:19:07.169Z,22.88
2022-08-22T19:21:44.366Z,21.60
2022-08-22T19:26:54.723Z,39.50
2022-08-22T19:29:21.114Z,25.25
2022-08-22T19:31:47.542Z,21.65
2022-08-22T19:34:13.827Z,25.63
2022-08-22T19:36:40.238Z,20.67
2022-08-22T19:39:09.236Z,17.70
2022-08-22T19:41:35.763Z,18.13
2022-08-22T19:44:02.027Z,18.48
2022-08-22T19:46:28.364Z,16.52
2022-08-22T19:48:54.670Z,14.75
2022-08-22T19:51:21.233Z,13.55
2022-08-22T19:53:47.523Z,15.27
2022-08-22T19:56:13.816Z,13.38
2022-08-22T20:01:24.047Z,11.88
2022-08-22T20:03:50.418Z,13.02
2022-08-22T20:06:42.533Z,12.65
2022-08-22T20:09:03.258Z,11.73
2022-08-22T20:11:29.674Z,11.80
2022-08-22T20:13:55.983Z,10.65
2022-08-22T20:16:22.318Z,9.13
2022-08-22T20:18:53.542Z,10.27
2022-08-22T20:21:28.012Z,9.48
2022-08-22T20:23:57.361Z,9.45
2022-08-22T20:26:23.708Z,8.52
2022-08-22T20:28:50.091Z,9.23
2022-08-22T20:31:16.496Z,8.27
2022-08-22T20:33:42.903Z,8.18
2022-08-22T20:36:18.603Z,8.52
2022-08-22T20:38:56.273Z,9.75
2022-08-22T20:41:22.754Z,17.75
2022-08-22T20:43:49.521Z,10.40
2022-08-22T20:46:16.656Z,17.52
2022-08-22T20:48:43.258Z,13.93
2022-08-22T20:51:09.590Z,14.73
2022-08-22T20:53:35.897Z,14.68
2022-08-22T20:56:02.469Z,14.50
2022-08-22T20:58:28.834Z,13.45
2022-08-22T21:00:55.359Z,14.50
2022-08-22T21:03:21.782Z,15.55
2022-08-22T21:05:48.151Z,18.30
2022-08-22T21:08:14.542Z,17.92
2022-08-22T21:10:40.941Z,14.57
2022-08-22T21:13:07.333Z,15.32
2022-08-22T21:15:33.621Z,15.25
2022-08-22T21:18:00.136Z,16.08
2022-08-22T21:20:26.674Z,16.67
2022-08-22T21:22:53.101Z,16.90
2022-08-22T21:25:19.930Z,20.75
2022-08-22T21:27:46.319Z,19.65
2022-08-22T21:30:12.632Z,20.52
2022-08-22T21:32:39.043Z,21.58
2022-08-22T21:35:06.278Z,18.20
2022-08-22T21:37:32.534Z,19.67
2022-08-22T21:39:58.903Z,22.15
2022-08-22T21:45:09.250Z,23.30
2022-08-22T21:47:35.698Z,86.18
2022-08-22T21:50:02.098Z,122.82
2022-08-22T21:52:28.822Z,90.75
2022-08-22T21:54:55.147Z,103.28
2022-08-22T21:57:21.673Z,137.30
2022-08-22T21:59:50.922Z,168.50
2022-08-22T22:02:24.813Z,194.85
2022-08-22T22:04:53.774Z,184.75
2022-08-22T22:07:20.186Z,187.07
2022-08-22T22:09:52.959Z,170.05
2022-08-22T22:12:21.286Z,166.65
2022-08-22T22:14:47.683Z,175.73
2022-08-22T22:17:14.046Z,169.23
2022-08-22T22:19:40.410Z,168.70
2022-08-22T22:22:06.758Z,171.50
2022-08-22T22:24:33.038Z,167.65
2022-08-22T22:26:59.342Z,167.27
2022-08-22T22:29:25.631Z,166.23
2022-08-22T22:31:51.937Z,158.38
2022-08-22T22:34:18.307Z,155.45
2022-08-22T22:36:44.573Z,148.15
2022-08-22T22:39:11.182Z,152.85
2022-08-22T22:41:37.510Z,156.20
2022-08-22T22:44:04.099Z,151.18
2022-08-22T22:46:30.713Z,151.05
2022-08-22T22:48:57.097Z,141.00
2022-08-22T22:51:23.526Z,137.68
2022-08-22T22:53:49.873Z,136.02
2022-08-22T22:56:16.345Z,137.77
2022-08-22T22:58:42.675Z,132.15
2022-08-22T23:01:09.327Z,131.10
2022-08-22T23:03:35.724Z,134.20
2022-08-22T23:06:02.002Z,126.63
2022-08-22T23:08:28.304Z,127.20
2022-08-22T23:10:54.654Z,129.82
2022-08-22T23:13:20.972Z,127.53
2022-08-22T23:15:47.268Z,121.60
2022-08-22T23:18:13.583Z,126.95
2022-08-22T23:20:40.159Z,119.07
2022-08-22T23:23:06.450Z,121.07
2022-08-22T23:25:32.868Z,117.45
2022-08-22T23:27:59.384Z,120.15
2022-08-22T23:30:25.845Z,116.50
2022-08-22T23:32:52.276Z,117.95
2022-08-22T23:35:18.624Z,113.75
2022-08-22T23:37:44.985Z,113.35
2022-08-22T23:40:11.306Z,111.15
2022-08-22T23:42:37.669Z,112.07
2022-08-22T23:45:03.950Z,107.63
2022-08-22T23:47:30.234Z,108.03
2022-08-22T23:49:56.550Z,111.03
2022-08-22T23:52:23.058Z,108.13
2022-08-22T23:54:51.558Z,105.82
2022-08-22T23:57:26.454Z,109.03
2022-08-22T23:59:57.636Z,105.43
